createdAt,value
2022-12-01T00:01:14.029Z,73.82
2022-12-01T00:03:41.336Z,68.88
2022-12-01T00:06:15.853Z,72.47
2022-12-01T00:09:02.846Z,76.63
2022-12-01T00:11:30.131Z,75.50
2022-12-01T00:13:57.017Z,75.82
2022-12-01T00:16:23.913Z,73.68
2022-12-01T00:18:52.536Z,74.43
2022-12-01T00:21:21.775Z,84.50
2022-12-01T00:23:51.642Z,77.63
2022-12-01T00:26:19.667Z,75.25
2022-12-01T00:28:57.332Z,83.90
2022-12-01T00:31:24.674Z,70.13
2022-12-01T00:33:51.910Z,69.30
2022-12-01T00:36:18.796Z,78.63
2022-12-01T00:38:46.538Z,76.78
2022-12-01T00:41:13.660Z,70.18
2022-12-01T00:43:40.984Z,65.68
2022-12-01T00:46:08.044Z,71.03
2022-12-01T00:48:34.985Z,75.53
2022-12-01T00:51:04.257Z,76.63
2022-12-01T00:53:31.177Z,74.20
2022-12-01T00:55:58.008Z,76.50
2022-12-01T00:58:25.422Z,75.30
2022-12-01T01:01:00.435Z,72.60
2022-12-01T01:03:28.778Z,72.35
2022-12-01T01:05:55.655Z,76.50
2022-12-01T01:08:22.646Z,68.30
2022-12-01T01:10:49.805Z,71.97
2022-12-01T01:13:17.026Z,68.00
2022-12-01T01:15:44.053Z,62.83
2022-12-01T01:18:11.888Z,69.22
2022-12-01T01:20:38.751Z,72.38
2022-12-01T01:23:05.588Z,65.97
2022-12-01T01:25:33.467Z,68.20
2022-12-01T01:28:00.491Z,71.32
2022-12-01T01:30:27.410Z,71.43
2022-12-01T01:32:54.366Z,75.50
2022-12-01T01:35:22.691Z,63.15
2022-12-01T01:37:50.916Z,67.57
2022-12-01T01:40:18.235Z,66.83
2022-12-01T01:42:45.116Z,68.00
2022-12-01T01:45:32.297Z,61.70
2022-12-01T01:48:00.388Z,63.78
2022-12-01T01:50:28.919Z,70.32
2022-12-01T01:53:00.805Z,66.43
2022-12-01T01:55:30.097Z,77.00
2022-12-01T01:57:57.457Z,71.07
2022-12-01T02:00:24.525Z,71.83
2022-12-01T02:02:54.154Z,71.03
2022-12-01T02:05:23.285Z,76.22
2022-12-01T02:07:55.858Z,70.72
2022-12-01T02:10:37.953Z,71.38
2022-12-01T02:13:13.904Z,69.22
2022-12-01T02:16:08.142Z,71.50
2022-12-01T02:18:59.596Z,72.72
2022-12-01T02:22:01.778Z,72.70
2022-12-01T02:24:51.873Z,74.57
2022-12-01T02:27:18.657Z,70.82
2022-12-01T02:30:22.169Z,74.15
2022-12-01T02:33:04.592Z,71.28
2022-12-01T02:35:41.100Z,72.40
2022-12-01T02:38:26.753Z,63.55
2022-12-01T02:41:04.623Z,65.97
2022-12-01T02:44:08.728Z,68.87
2022-12-01T02:46:55.590Z,70.35
2022-12-01T02:49:35.428Z,59.90
2022-12-01T02:52:05.774Z,64.55
2022-12-01T02:54:33.747Z,67.90
2022-12-01T02:57:00.594Z,66.70
2022-12-01T02:59:27.503Z,68.35
2022-12-01T03:02:06.231Z,67.88
2022-12-01T03:05:03.280Z,71.00
2022-12-01T03:07:51.389Z,66.03
2022-12-01T03:10:24.080Z,54.95
2022-12-01T03:12:58.321Z,69.85
2022-12-01T03:15:36.394Z,72.00
2022-12-01T03:18:26.045Z,71.27
2022-12-01T03:21:08.165Z,68.97
2022-12-01T03:23:41.465Z,75.97
2022-12-01T03:26:12.369Z,76.28
2022-12-01T03:29:12.867Z,74.88
2022-12-01T03:31:54.536Z,63.50
2022-12-01T03:34:46.512Z,71.65
2022-12-01T03:37:21.771Z,77.03
2022-12-01T03:39:55.927Z,74.32
2022-12-01T03:42:34.360Z,74.87
2022-12-01T03:45:08.053Z,71.10
2022-12-01T03:47:40.363Z,76.93
2022-12-01T03:50:13.224Z,66.30
2022-12-01T03:53:07.108Z,72.32
2022-12-01T03:55:40.894Z,75.55
2022-12-01T03:58:10.749Z,73.15
2022-12-01T04:00:37.966Z,69.78
2022-12-01T04:03:05.296Z,76.65
2022-12-01T04:05:34.566Z,78.57
2022-12-01T04:08:02.138Z,74.05
2022-12-01T04:10:29.281Z,74.15
2022-12-01T04:12:59.574Z,87.18
2022-12-01T04:15:27.655Z,76.43
2022-12-01T04:17:54.751Z,81.65
2022-12-01T04:20:21.832Z,75.10
2022-12-01T04:22:49.181Z,76.35
2022-12-01T04:25:16.210Z,77.28
2022-12-01T04:27:43.131Z,79.38
2022-12-01T04:30:11.088Z,76.00
2022-12-01T04:32:42.773Z,80.90
2022-12-01T04:35:11.538Z,73.90
2022-12-01T04:37:39.566Z,84.63
2022-12-01T04:40:07.580Z,82.30
2022-12-01T04:42:34.468Z,87.50
2022-12-01T04:45:01.360Z,98.32
2022-12-01T04:47:28.243Z,74.75
2022-12-01T04:49:55.084Z,88.70
2022-12-01T04:52:21.911Z,79.90
2022-12-01T04:54:48.742Z,87.63
2022-12-01T04:57:15.588Z,89.57
2022-12-01T04:59:42.442Z,93.30
2022-12-01T05:02:09.312Z,84.18
2022-12-01T05:04:38.781Z,91.85
2022-12-01T05:07:06.148Z,85.40
2022-12-01T05:09:33.099Z,91.10
2022-12-01T05:11:59.929Z,89.97
2022-12-01T05:14:26.873Z,89.97
2022-12-01T05:16:55.069Z,84.07
2022-12-01T05:19:40.318Z,79.53
2022-12-01T05:22:07.115Z,86.00
2022-12-01T05:24:33.986Z,90.47
2022-12-01T05:27:00.876Z,84.47
2022-12-01T05:29:27.719Z,92.55
2022-12-01T05:31:54.674Z,85.25
2022-12-01T05:34:21.655Z,90.60
2022-12-01T05:36:48.502Z,89.70
2022-12-01T05:39:15.523Z,85.35
2022-12-01T05:41:42.371Z,87.68
2022-12-01T05:44:09.218Z,88.88
2022-12-01T05:46:36.095Z,80.85
2022-12-01T05:49:02.937Z,86.95
2022-12-01T05:51:29.743Z,86.63
2022-12-01T05:53:58.682Z,93.80
2022-12-01T05:56:25.638Z,93.15
2022-12-01T05:58:52.485Z,92.32
2022-12-01T06:01:19.397Z,91.90
2022-12-01T06:03:46.273Z,98.95
2022-12-01T06:06:13.251Z,102.05
2022-12-01T06:08:40.155Z,91.50
2022-12-01T06:11:07.034Z,98.15
2022-12-01T06:13:33.973Z,95.75
2022-12-01T06:16:03.198Z,98.80
2022-12-01T06:18:38.041Z,105.55
2022-12-01T06:21:06.279Z,98.88
2022-12-01T06:23:33.695Z,109.95
2022-12-01T06:26:00.572Z,111.05
2022-12-01T06:28:27.512Z,105.10
2022-12-01T06:30:59.305Z,103.30
2022-12-01T06:33:29.697Z,121.80
2022-12-01T06:36:05.780Z,92.35
2022-12-01T06:38:34.867Z,102.60
2022-12-01T06:41:02.017Z,117.18
2022-12-01T06:43:29.043Z,102.05
2022-12-01T06:46:01.170Z,113.07
2022-12-01T06:48:29.587Z,104.22
2022-12-01T06:51:00.297Z,114.22
2022-12-01T06:53:28.561Z,116.32
2022-12-01T06:56:04.279Z,121.35
2022-12-01T06:58:31.869Z,117.50
2022-12-01T07:00:59.292Z,118.25
2022-12-01T07:03:26.776Z,130.45
2022-12-01T07:06:01.526Z,106.77
2022-12-01T07:08:30.219Z,116.72
2022-12-01T07:11:08.714Z,127.25
2022-12-01T07:13:36.197Z,124.88
2022-12-01T07:16:04.137Z,135.80
2022-12-01T07:18:32.237Z,158.43
2022-12-01T07:21:01.057Z,137.30
2022-12-01T07:23:28.265Z,135.55
2022-12-01T07:26:10.529Z,137.75
2022-12-01T07:28:37.537Z,134.77
2022-12-01T07:31:06.547Z,135.23
2022-12-01T07:33:33.722Z,139.43
2022-12-01T07:36:01.159Z,123.27
2022-12-01T07:38:29.774Z,131.70
2022-12-01T07:41:02.402Z,145.73
2022-12-01T07:43:31.405Z,137.68
2022-12-01T07:46:05.480Z,132.40
2022-12-01T07:48:32.889Z,136.25
2022-12-01T07:50:59.858Z,153.38
2022-12-01T07:53:26.863Z,135.30
2022-12-01T07:55:53.793Z,149.88
2022-12-01T07:58:20.656Z,128.10
2022-12-01T08:00:47.562Z,167.60
2022-12-01T08:03:15.001Z,293.50
2022-12-01T08:05:41.994Z,463.55
2022-12-01T08:08:09.013Z,354.10
2022-12-01T08:10:36.463Z,409.10
2022-12-01T08:13:03.963Z,643.90
2022-12-01T08:15:30.929Z,416.27
2022-12-01T08:18:02.627Z,450.65
2022-12-01T08:20:29.541Z,418.02
2022-12-01T08:22:56.418Z,411.23
2022-12-01T08:25:23.294Z,386.00
2022-12-01T08:27:50.183Z,358.02
2022-12-01T08:30:17.223Z,324.70
2022-12-01T08:32:44.383Z,283.15
2022-12-01T08:35:11.222Z,383.85
2022-12-01T08:37:38.085Z,215.50
2022-12-01T08:40:05.714Z,172.65
2022-12-01T08:42:32.628Z,181.30
2022-12-01T08:44:59.625Z,150.82
2022-12-01T08:47:29.028Z,157.98
2022-12-01T08:49:57.041Z,163.57
2022-12-01T08:52:23.876Z,120.45
2022-12-01T08:54:50.701Z,135.10
2022-12-01T08:57:18.067Z,135.57
2022-12-01T08:59:44.927Z,146.80
2022-12-01T09:02:15.922Z,98.45
2022-12-01T09:04:42.889Z,117.50
2022-12-01T09:07:10.752Z,114.88
2022-12-01T09:09:37.855Z,118.18
2022-12-01T09:12:04.952Z,118.93
2022-12-01T09:14:31.873Z,113.63
2022-12-01T09:16:58.728Z,109.45
2022-12-01T09:19:25.605Z,104.95
2022-12-01T09:21:52.936Z,119.03
2022-12-01T09:24:19.978Z,100.55
2022-12-01T09:26:47.211Z,108.93
2022-12-01T09:29:17.349Z,118.85
2022-12-01T09:31:44.485Z,105.05
2022-12-01T09:34:15.791Z,107.18
2022-12-01T09:36:42.825Z,97.87
2022-12-01T09:39:13.424Z,107.68
2022-12-01T09:41:45.126Z,101.70
2022-12-01T09:44:20.679Z,103.93
2022-12-01T09:46:57.514Z,99.00
2022-12-01T09:49:45.309Z,96.10
2022-12-01T09:52:16.466Z,82.18
2022-12-01T09:54:43.455Z,86.22
2022-12-01T09:57:30.123Z,85.75
2022-12-01T09:59:59.022Z,100.75
2022-12-01T10:02:37.467Z,85.88
2022-12-01T10:05:12.072Z,87.10
2022-12-01T10:07:57.281Z,83.35
2022-12-01T10:10:34.823Z,80.05
2022-12-01T10:13:01.925Z,89.50
2022-12-01T10:15:54.300Z,78.80
2022-12-01T10:18:39.352Z,87.93
2022-12-01T10:21:14.671Z,90.20
2022-12-01T10:24:13.242Z,88.28
2022-12-01T10:27:07.805Z,87.15
2022-12-01T10:29:43.812Z,85.25
2022-12-01T10:32:21.574Z,88.90
2022-12-01T10:34:48.821Z,84.60
2022-12-01T10:37:24.747Z,87.50
2022-12-01T10:39:55.082Z,86.05
2022-12-01T10:42:35.108Z,82.70
2022-12-01T10:45:07.553Z,80.03
2022-12-01T10:47:35.873Z,79.60
2022-12-01T10:50:04.623Z,75.05
2022-12-01T10:52:41.188Z,91.63
2022-12-01T10:55:23.154Z,90.30
2022-12-01T10:57:51.099Z,83.30
2022-12-01T11:00:59.561Z,147.40
2022-12-01T11:03:27.263Z,75.85
2022-12-01T11:05:58.100Z,81.63
2022-12-01T11:08:54.311Z,82.40
2022-12-01T11:11:28.980Z,79.80
2022-12-01T11:13:58.946Z,74.22
2022-12-01T11:16:42.398Z,83.55
2022-12-01T11:19:27.803Z,55.53
2022-12-01T11:22:00.196Z,71.83
2022-12-01T11:24:55.496Z,75.50
2022-12-01T11:27:29.304Z,79.75
2022-12-01T11:30:00.089Z,71.95
2022-12-01T11:32:33.373Z,76.30
2022-12-01T11:35:14.844Z,65.55
2022-12-01T11:38:27.234Z,60.08
2022-12-01T11:41:04.356Z,65.87
2022-12-01T11:43:34.899Z,71.13
2022-12-01T11:46:05.663Z,64.00
2022-12-01T11:48:37.350Z,65.68
2022-12-01T11:51:24.342Z,67.60
2022-12-01T11:54:19.310Z,73.35
2022-12-01T11:56:52.810Z,68.47
2022-12-01T11:59:31.507Z,55.50
2022-12-01T12:02:16.986Z,64.55
2022-12-01T12:05:05.423Z,63.70
2022-12-01T12:07:53.788Z,61.17
2022-12-01T12:10:45.296Z,61.08
2022-12-01T12:13:20.849Z,61.22
2022-12-01T12:16:18.957Z,56.92
2022-12-01T12:19:04.627Z,66.63
2022-12-01T12:21:36.451Z,69.85
2022-12-01T12:24:23.619Z,68.35
2022-12-01T12:27:17.923Z,74.05
2022-12-01T12:30:02.071Z,54.13
2022-12-01T12:32:28.832Z,58.55
2022-12-01T12:35:04.557Z,58.60
2022-12-01T12:37:49.733Z,57.25
2022-12-01T12:40:19.717Z,55.92
2022-12-01T12:42:55.687Z,54.03
2022-12-01T12:45:34.120Z,50.92
2022-12-01T12:48:00.898Z,50.38
2022-12-01T12:50:34.572Z,58.50
2022-12-01T12:53:06.653Z,51.30
2022-12-01T12:55:43.870Z,54.63
2022-12-01T12:58:16.757Z,61.63
2022-12-01T13:00:50.431Z,41.30
2022-12-01T13:03:34.061Z,50.33
2022-12-01T13:06:14.838Z,62.25
2022-12-01T13:08:50.742Z,65.03
2022-12-01T13:11:29.029Z,59.45
2022-12-01T13:14:13.209Z,60.10
2022-12-01T13:16:44.121Z,56.47
2022-12-01T13:19:27.237Z,56.07
2022-12-01T13:21:55.762Z,56.63
2022-12-01T13:24:29.694Z,52.67
2022-12-01T13:27:19.877Z,52.92
2022-12-01T13:29:50.678Z,42.85
2022-12-01T13:32:38.544Z,55.55
2022-12-01T13:35:20.754Z,57.28
2022-12-01T13:37:48.345Z,51.90
2022-12-01T13:40:24.927Z,46.25
2022-12-01T13:43:10.249Z,46.90
2022-12-01T13:45:40.015Z,48.22
2022-12-01T13:48:45.766Z,51.35
2022-12-01T13:51:12.661Z,54.53
2022-12-01T13:53:52.655Z,54.70
2022-12-01T13:56:45.801Z,54.53
2022-12-01T13:59:57.753Z,55.03
2022-12-01T14:02:26.926Z,54.25
2022-12-01T14:04:53.963Z,54.33
2022-12-01T14:07:28.399Z,50.90
2022-12-01T14:10:06.285Z,45.20
2022-12-01T14:12:37.799Z,51.65
2022-12-01T14:15:22.755Z,48.08
2022-12-01T14:18:04.810Z,52.25
2022-12-01T14:20:37.313Z,52.35
2022-12-01T14:23:33.215Z,54.58
2022-12-01T14:26:04.243Z,54.67
2022-12-01T14:28:56.057Z,51.22
2022-12-01T14:31:24.874Z,50.53
2022-12-01T14:34:01.959Z,50.85
2022-12-01T14:36:41.951Z,53.23
2022-12-01T14:39:19.885Z,63.55
2022-12-01T14:41:51.624Z,55.75
2022-12-01T14:44:30.853Z,55.75
2022-12-01T14:47:22.687Z,57.20
2022-12-01T14:50:13.790Z,52.83
2022-12-01T14:52:45.133Z,53.63
2022-12-01T14:55:20.627Z,50.75
2022-12-01T14:57:52.632Z,53.65
2022-12-01T15:00:25.100Z,56.22
2022-12-01T15:02:56.099Z,53.13
2022-12-01T15:05:27.306Z,53.15
2022-12-01T15:08:18.637Z,58.88
2022-12-01T15:10:53.151Z,51.08
2022-12-01T15:13:53.924Z,50.83
2022-12-01T15:16:23.262Z,48.90
2022-12-01T15:18:50.611Z,56.03
2022-12-01T15:21:25.050Z,55.03
2022-12-01T15:24:19.679Z,49.78
2022-12-01T15:26:51.701Z,60.00
2022-12-01T15:29:19.311Z,56.30
2022-12-01T15:32:01.986Z,54.95
2022-12-01T15:34:38.137Z,56.97
2022-12-01T15:37:11.558Z,52.90
2022-12-01T15:39:52.534Z,50.80
2022-12-01T15:42:33.421Z,54.50
2022-12-01T15:45:15.614Z,55.92
2022-12-01T15:47:43.543Z,51.33
2022-12-01T15:50:46.211Z,48.45
2022-12-01T15:53:29.569Z,52.83
2022-12-01T15:55:59.286Z,53.28
2022-12-01T15:58:30.315Z,53.47
2022-12-01T16:01:13.222Z,48.10
2022-12-01T16:03:54.137Z,52.83
2022-12-01T16:06:27.931Z,60.72
2022-12-01T16:09:00.090Z,56.95
2022-12-01T16:11:27.583Z,53.40
2022-12-01T16:14:08.066Z,52.88
2022-12-01T16:16:46.928Z,53.83
2022-12-01T16:19:16.901Z,56.55
2022-12-01T16:21:49.654Z,56.70
2022-12-01T16:24:38.493Z,53.83
2022-12-01T16:27:18.490Z,56.53
2022-12-01T16:30:02.773Z,50.95
2022-12-01T16:32:42.477Z,50.22
2022-12-01T16:35:21.373Z,45.63
2022-12-01T16:37:48.422Z,49.72
2022-12-01T16:40:16.804Z,49.75
2022-12-01T16:42:44.028Z,44.92
2022-12-01T16:45:14.737Z,42.47
2022-12-01T16:47:43.109Z,47.60
2022-12-01T16:50:18.066Z,55.28
2022-12-01T16:52:45.910Z,52.65
2022-12-01T16:55:43.905Z,55.13
2022-12-01T16:58:10.883Z,48.42
2022-12-01T17:00:37.801Z,51.65
2022-12-01T17:03:05.811Z,57.03
2022-12-01T17:05:33.455Z,56.70
2022-12-01T17:08:00.568Z,53.37
2022-12-01T17:10:27.462Z,56.70
2022-12-01T17:12:54.346Z,52.70
2022-12-01T17:15:21.219Z,51.60
2022-12-01T17:17:48.188Z,61.13
2022-12-01T17:20:15.436Z,63.13
2022-12-01T17:22:42.578Z,64.50
2022-12-01T17:25:09.868Z,62.73
2022-12-01T17:27:37.718Z,61.25
2022-12-01T17:30:09.078Z,62.13
2022-12-01T17:32:36.275Z,62.17
2022-12-01T17:35:03.472Z,67.40
2022-12-01T17:37:30.388Z,69.25
2022-12-01T17:39:57.366Z,67.35
2022-12-01T17:42:24.381Z,63.88
2022-12-01T17:44:51.482Z,57.63
2022-12-01T17:47:18.601Z,56.63
2022-12-01T17:49:45.487Z,66.50
2022-12-01T17:52:12.522Z,71.82
2022-12-01T17:54:39.423Z,64.97
2022-12-01T17:57:07.519Z,63.63
2022-12-01T17:59:35.548Z,63.67
2022-12-01T18:02:03.731Z,66.32
2022-12-01T18:04:31.843Z,61.83
2022-12-01T18:06:59.535Z,75.68
2022-12-01T18:09:26.867Z,100.82
2022-12-01T18:11:56.239Z,76.85
2022-12-01T18:14:24.304Z,74.35
2022-12-01T18:16:51.862Z,76.10
2022-12-01T18:19:19.508Z,74.13
2022-12-01T18:21:46.440Z,66.28
2022-12-01T18:24:13.566Z,70.30
2022-12-01T18:26:41.354Z,75.97
2022-12-01T18:29:14.445Z,71.88
2022-12-01T18:31:41.879Z,69.32
2022-12-01T18:34:11.158Z,68.35
2022-12-01T18:36:39.962Z,67.17
2022-12-01T18:39:09.026Z,69.55
2022-12-01T18:41:36.803Z,71.18
2022-12-01T18:44:04.442Z,69.90
2022-12-01T18:46:31.687Z,71.63
2022-12-01T18:49:02.962Z,68.88
2022-12-01T18:51:32.229Z,68.82
2022-12-01T18:54:03.583Z,74.07
2022-12-01T18:56:31.099Z,60.88
2022-12-01T18:58:59.858Z,65.50
2022-12-01T19:01:32.245Z,76.47
2022-12-01T19:04:00.481Z,70.07
2022-12-01T19:06:28.871Z,77.30
2022-12-01T19:08:59.996Z,67.18
2022-12-01T19:11:27.933Z,71.80
2022-12-01T19:13:56.819Z,72.50
2022-12-01T19:16:24.393Z,96.07
2022-12-01T19:18:52.851Z,103.93
2022-12-01T19:21:20.669Z,79.87
2022-12-01T19:23:48.458Z,65.32
2022-12-01T19:26:21.797Z,71.07
2022-12-01T19:28:49.307Z,72.05
2022-12-01T19:31:18.734Z,66.40
2022-12-01T19:33:46.580Z,72.63
2022-12-01T19:36:25.035Z,71.22
2022-12-01T19:38:52.976Z,74.22
2022-12-01T19:41:20.835Z,86.13
2022-12-01T19:43:48.141Z,102.53
2022-12-01T19:46:17.835Z,79.18
2022-12-01T19:48:45.118Z,82.55
2022-12-01T19:51:20.209Z,53.65
2022-12-01T19:53:47.926Z,59.63
2022-12-01T19:56:15.051Z,61.30
2022-12-01T19:58:41.961Z,56.33
2022-12-01T20:01:11.926Z,63.35
2022-12-01T20:03:40.661Z,53.05
2022-12-01T20:06:14.444Z,51.83
2022-12-01T20:08:41.877Z,64.77
2022-12-01T20:11:09.193Z,75.90
2022-12-01T20:13:39.980Z,69.53
2022-12-01T20:16:08.605Z,72.57
2022-12-01T20:18:36.319Z,75.80
2022-12-01T20:21:04.078Z,73.28
2022-12-01T20:23:31.001Z,67.03
2022-12-01T20:26:02.856Z,77.32
2022-12-01T20:28:30.583Z,80.07
2022-12-01T20:30:58.353Z,69.55
2022-12-01T20:33:26.166Z,76.18
2022-12-01T20:35:53.068Z,66.40
2022-12-01T20:38:25.828Z,68.78
2022-12-01T20:40:54.446Z,76.50
2022-12-01T20:43:21.690Z,74.22
2022-12-01T20:45:51.496Z,72.63
2022-12-01T20:48:18.561Z,67.53
2022-12-01T20:50:45.562Z,65.95
2022-12-01T20:53:12.664Z,65.78
2022-12-01T20:55:39.870Z,73.30
2022-12-01T20:58:10.499Z,76.22
2022-12-01T21:00:39.993Z,83.43
2022-12-01T21:03:07.173Z,76.93
2022-12-01T21:05:34.051Z,83.18
2022-12-01T21:08:01.944Z,67.38
2022-12-01T21:10:29.192Z,77.63
2022-12-01T21:13:21.640Z,76.57
2022-12-01T21:16:00.224Z,72.18
2022-12-01T21:18:38.319Z,69.38
2022-12-01T21:21:21.191Z,76.95
2022-12-01T21:23:54.883Z,80.00
2022-12-01T21:26:21.789Z,72.90
2022-12-01T21:28:48.672Z,81.43
2022-12-01T21:31:16.073Z,83.18
2022-12-01T21:33:43.397Z,75.45
2022-12-01T21:36:22.227Z,66.93
2022-12-01T21:38:53.374Z,75.93
2022-12-01T21:41:29.924Z,77.33
2022-12-01T21:44:02.663Z,77.60
2022-12-01T21:46:30.035Z,75.57
2022-12-01T21:48:57.101Z,79.25
2022-12-01T21:51:25.668Z,85.20
2022-12-01T21:53:55.965Z,77.10
2022-12-01T21:56:26.919Z,79.18
2022-12-01T21:58:58.957Z,77.32
2022-12-01T22:01:34.195Z,79.50
2022-12-01T22:04:06.058Z,80.28
2022-12-01T22:06:39.571Z,79.65
2022-12-01T22:09:31.710Z,83.05
2022-12-01T22:12:10.524Z,77.53
2022-12-01T22:14:37.443Z,82.15
2022-12-01T22:17:07.547Z,84.28
2022-12-01T22:19:39.655Z,80.43
2022-12-01T22:22:09.461Z,84.93
2022-12-01T22:24:40.981Z,84.05
2022-12-01T22:27:29.814Z,70.20
2022-12-01T22:30:19.535Z,84.80
2022-12-01T22:33:03.832Z,81.57
2022-12-01T22:35:43.259Z,87.82
2022-12-01T22:38:39.850Z,82.63
2022-12-01T22:41:12.110Z,79.85
2022-12-01T22:43:48.289Z,81.63
2022-12-01T22:46:25.817Z,82.82
2022-12-01T22:49:20.188Z,76.68
2022-12-01T22:51:50.031Z,85.22
2022-12-01T22:54:16.840Z,81.68
2022-12-01T22:56:48.518Z,78.60
2022-12-01T22:59:15.364Z,80.20
2022-12-01T23:02:01.146Z,82.63
2022-12-01T23:04:38.493Z,86.85
2022-12-01T23:07:23.915Z,82.90
2022-12-01T23:09:50.867Z,84.32
2022-12-01T23:12:27.215Z,83.25
2022-12-01T23:15:16.022Z,87.18
2022-12-01T23:17:42.903Z,92.15
2022-12-01T23:20:28.670Z,83.60
2022-12-01T23:22:57.239Z,70.90
2022-12-01T23:25:25.767Z,85.27
2022-12-01T23:27:54.641Z,89.40
2022-12-01T23:30:22.510Z,74.60
2022-12-01T23:33:19.289Z,86.20
2022-12-01T23:35:55.928Z,88.80
2022-12-01T23:38:28.495Z,86.63
2022-12-01T23:40:59.346Z,91.63
2022-12-01T23:43:33.162Z,85.22
2022-12-01T23:46:05.940Z,86.97
2022-12-01T23:48:37.842Z,84.55
2022-12-01T23:51:10.940Z,83.28
2022-12-01T23:53:40.292Z,81.00
2022-12-01T23:56:12.483Z,81.90
2022-12-01T23:58:39.347Z,94.10
